Time;durP1;ratioP1;P1;durP2;ratioP2;P2;SDS_P1;SDS_P2;PMS_P1;PMS_P2;Temp;Humidity;BMP_temperature;BMP_pressure;BME280_temperature;BME280_humidity;BME280_pressure;Samples;Min_cycle;Max_cycle;Signal;HPM_P1;HPM_P2
2021/12/04 00:02:06;;;;;;;36.40;15.18;;;;;;;;;;5078089;28;20460;-75
2021/12/04 00:04:35;;;;;;;33.70;14.90;;;;;;;;;;5096826;28;20116;-74
2021/12/04 00:07:07;;;;;;;28.02;12.63;;;;;;;;;;5078014;28;20098;-75
2021/12/04 00:09:34;;;;;;;29.00;12.80;;;;;;;;;;5077962;28;20032;-74
2021/12/04 00:12:02;;;;;;;35.42;13.88;;;;;;;;;;5096618;28;20035;-75
2021/12/04 00:14:29;;;;;;;30.27;13.13;;;;;;;;;;5096045;28;20107;-74
2021/12/04 00:16:56;;;;;;;34.20;13.55;;;;;;;;;;5096413;28;20479;-74
2021/12/04 00:19:23;;;;;;;31.08;13.90;;;;;;;;;;5095947;28;20043;-74
2021/12/04 00:21:49;;;;;;;33.47;13.68;;;;;;;;;;5096328;28;20028;-74
2021/12/04 00:24:16;;;;;;;38.92;17.05;;;;;;;;;;5094834;28;20069;-74
2021/12/04 00:26:42;;;;;;;38.80;15.68;;;;;;;;;;5096303;28;20028;-74
2021/12/04 00:29:09;;;;;;;43.80;17.20;;;;;;;;;;5095643;28;20031;-75
2021/12/04 00:31:35;;;;;;;46.72;18.55;;;;;;;;;;5095954;28;20428;-75
2021/12/04 00:34:02;;;;;;;47.78;16.88;;;;;;;;;;5077542;28;20476;-74
2021/12/04 00:37:32;;;;;;;48.05;17.77;;;;;;;;;;5095482;28;20035;-74
2021/12/04 00:50:15;;;;;;;32.30;12.50;;;;;;;;;;5095377;28;20027;-74
2021/12/04 00:52:41;;;;;;;32.92;13.32;;;;;;;;;;5095495;28;20028;-74
2021/12/04 00:55:08;;;;;;;39.75;14.82;;;;;;;;;;5095197;28;20027;-74
2021/12/04 00:57:34;;;;;;;33.97;13.80;;;;;;;;;;5095039;28;20042;-73
2021/12/04 01:00:01;;;;;;;23.48;9.48;;;;;;;;;;5076960;28;20032;-74
2021/12/04 01:02:27;;;;;;;26.45;9.48;;;;;;;;;;5095267;28;20476;-75
2021/12/04 01:04:54;;;;;;;24.75;9.00;;;;;;;;;;5095293;28;20097;-75
2021/12/04 01:07:20;;;;;;;21.90;9.27;;;;;;;;;;5076928;28;20032;-74
2021/12/04 01:09:47;;;;;;;17.48;8.32;;;;;;;;;;5077475;28;20032;-75
2021/12/04 01:12:13;;;;;;;19.70;8.27;;;;;;;;;;5095463;28;20050;-74
2021/12/04 01:14:40;;;;;;;25.05;9.23;;;;;;;;;;5095067;28;20107;-74
2021/12/04 01:17:06;;;;;;;22.67;9.65;;;;;;;;;;5094681;28;20039;-74
2021/12/04 01:19:33;;;;;;;22.35;9.20;;;;;;;;;;5095356;28;20138;-74
2021/12/04 01:21:59;;;;;;;21.30;9.23;;;;;;;;;;5094689;28;20122;-74
2021/12/04 01:24:26;;;;;;;29.00;10.55;;;;;;;;;;5094653;28;20078;-74
2021/12/04 01:26:52;;;;;;;35.15;12.00;;;;;;;;;;5076429;28;20383;-74
2021/12/04 01:29:19;;;;;;;33.58;11.93;;;;;;;;;;5076366;28;20031;-74
2021/12/04 01:31:46;;;;;;;48.78;16.58;;;;;;;;;;5095069;28;20349;-75
2021/12/04 01:34:13;;;;;;;34.83;12.30;;;;;;;;;;5094757;28;20445;-75
2021/12/04 01:36:39;;;;;;;40.97;15.30;;;;;;;;;;5094322;28;20075;-74
2021/12/04 01:39:06;;;;;;;44.42;15.65;;;;;;;;;;5094330;28;20021;-75
2021/12/04 01:41:33;;;;;;;64.35;21.00;;;;;;;;;;5094290;28;20035;-74
2021/12/04 01:44:00;;;;;;;43.95;18.23;;;;;;;;;;5094520;28;20025;-74
2021/12/04 01:46:27;;;;;;;51.30;19.10;;;;;;;;;;5094250;28;20511;-74
2021/12/04 01:48:53;;;;;;;51.88;18.08;;;;;;;;;;5094756;28;20032;-74
2021/12/04 01:51:20;;;;;;;47.17;17.73;;;;;;;;;;5094162;28;20047;-74
2021/12/04 01:53:46;;;;;;;46.40;16.42;;;;;;;;;;5094914;28;20039;-74
2021/12/04 01:56:13;;;;;;;39.05;16.83;;;;;;;;;;5094015;28;20028;-74
2021/12/04 01:58:39;;;;;;;39.15;14.52;;;;;;;;;;5075846;28;20088;-74
2021/12/04 02:01:07;;;;;;;42.10;14.93;;;;;;;;;;5075911;28;20027;-75
2021/12/04 02:03:34;;;;;;;46.55;17.35;;;;;;;;;;5075818;28;20078;-74
2021/12/04 02:06:00;;;;;;;49.53;16.75;;;;;;;;;;5093805;28;20458;-75
2021/12/04 02:08:26;;;;;;;46.58;17.77;;;;;;;;;;5094417;28;20027;-74
2021/12/04 02:10:55;;;;;;;42.00;17.30;;;;;;;;;;5093870;28;20047;-74
2021/12/04 02:13:21;;;;;;;57.95;22.17;;;;;;;;;;5093878;28;20141;-75
2021/12/04 02:15:50;;;;;;;61.15;22.98;;;;;;;;;;5093823;28;20048;-74
2021/12/04 02:18:18;;;;;;;64.60;24.60;;;;;;;;;;5075603;28;20039;-74
2021/12/04 02:20:44;;;;;;;55.10;22.95;;;;;;;;;;5094295;28;20030;-75
2021/12/04 02:23:11;;;;;;;47.63;20.02;;;;;;;;;;5094131;28;20519;-75
2021/12/04 02:25:38;;;;;;;43.17;17.75;;;;;;;;;;5093660;28;20388;-74
2021/12/04 02:28:05;;;;;;;39.15;16.05;;;;;;;;;;5075390;28;20027;-74
2021/12/04 02:30:33;;;;;;;32.47;14.57;;;;;;;;;;5075492;28;20028;-74
2021/12/04 02:32:59;;;;;;;31.88;12.25;;;;;;;;;;5075453;28;20031;-74
2021/12/04 02:35:26;;;;;;;35.05;15.55;;;;;;;;;;5094093;28;20032;-74
2021/12/04 02:37:53;;;;;;;42.05;16.67;;;;;;;;;;5075327;28;20171;-75
2021/12/04 02:40:21;;;;;;;33.22;13.88;;;;;;;;;;5093419;28;20028;-74
2021/12/04 02:42:48;;;;;;;35.28;15.05;;;;;;;;;;5093744;28;20024;-75
2021/12/04 02:45:14;;;;;;;35.90;14.65;;;;;;;;;;5094044;28;20038;-75
2021/12/04 02:47:41;;;;;;;34.20;15.15;;;;;;;;;;5097688;28;20028;-75
2021/12/04 02:50:09;;;;;;;46.03;17.25;;;;;;;;;;5097613;28;20105;-74
2021/12/04 02:52:36;;;;;;;27.77;13.90;;;;;;;;;;5098103;28;20020;-74
2021/12/04 02:55:03;;;;;;;40.53;17.65;;;;;;;;;;5097802;28;20032;-74
2021/12/04 02:57:30;;;;;;;36.95;15.60;;;;;;;;;;5079187;28;20044;-74
2021/12/04 02:59:56;;;;;;;40.35;17.75;;;;;;;;;;5079295;28;20115;-74
2021/12/04 03:02:24;;;;;;;32.20;14.73;;;;;;;;;;5097659;28;20103;-75
2021/12/04 03:04:51;;;;;;;31.50;14.63;;;;;;;;;;5097603;28;20357;-73
2021/12/04 03:07:22;;;;;;;31.30;12.52;;;;;;;;;;5097401;28;20062;-73
2021/12/04 03:09:51;;;;;;;23.05;11.18;;;;;;;;;;5097836;28;20100;-73
2021/12/04 03:12:19;;;;;;;29.25;12.23;;;;;;;;;;5097960;28;20115;-74
2021/12/04 03:14:45;;;;;;;22.15;10.70;;;;;;;;;;5078970;28;20031;-74
2021/12/04 03:17:14;;;;;;;26.05;10.02;;;;;;;;;;5097889;28;20028;-73
2021/12/04 03:19:41;;;;;;;24.20;10.45;;;;;;;;;;5078816;28;20031;-74
2021/12/04 03:22:08;;;;;;;23.60;9.38;;;;;;;;;;5097035;28;20432;-74
2021/12/04 03:24:38;;;;;;;22.92;10.73;;;;;;;;;;5078757;28;20024;-74
2021/12/04 03:27:04;;;;;;;24.00;10.43;;;;;;;;;;5078689;28;20115;-74
2021/12/04 03:29:32;;;;;;;22.27;9.90;;;;;;;;;;5096907;28;20031;-74
2021/12/04 03:42:56;;;;;;;23.55;9.80;;;;;;;;;;5096946;28;20081;-74
2021/12/04 03:45:22;;;;;;;23.65;9.50;;;;;;;;;;5078415;28;20471;-73
2021/12/04 03:47:51;;;;;;;21.52;9.18;;;;;;;;;;5097109;28;20039;-74
2021/12/04 03:50:17;;;;;;;45.67;14.02;;;;;;;;;;5078409;28;20024;-74
2021/12/04 03:52:44;;;;;;;22.70;9.65;;;;;;;;;;5078286;28;20034;-74
2021/12/04 03:55:10;;;;;;;29.35;11.68;;;;;;;;;;5097012;28;20052;-75
2021/12/04 03:57:44;;;;;;;29.90;12.23;;;;;;;;;;5096268;28;20470;-72
2021/12/04 04:00:14;;;;;;;30.10;12.90;;;;;;;;;;5096928;28;20016;-74
2021/12/04 04:02:40;;;;;;;33.55;11.68;;;;;;;;;;5096729;28;20094;-73
2021/12/04 04:05:07;;;;;;;28.48;11.43;;;;;;;;;;5074448;28;20040;-74
2021/12/04 04:07:33;;;;;;;28.95;11.35;;;;;;;;;;5076485;28;20025;-74
2021/12/04 04:09:59;;;;;;;26.58;11.05;;;;;;;;;;5074533;28;20519;-73
2021/12/04 04:12:25;;;;;;;26.65;11.55;;;;;;;;;;5076107;28;20387;-73
2021/12/04 04:14:52;;;;;;;29.17;11.30;;;;;;;;;;5075762;28;20036;-73
2021/12/04 04:17:18;;;;;;;24.17;10.90;;;;;;;;;;5076155;28;20460;-73
2021/12/04 04:19:45;;;;;;;23.80;10.93;;;;;;;;;;5075698;28;20074;-73
2021/12/04 04:22:11;;;;;;;33.25;12.55;;;;;;;;;;5076121;28;20480;-73
2021/12/04 04:24:37;;;;;;;26.17;12.30;;;;;;;;;;5074342;28;20016;-73
2021/12/04 04:27:04;;;;;;;29.35;13.32;;;;;;;;;;5075486;28;20082;-73
2021/12/04 04:29:30;;;;;;;35.28;13.60;;;;;;;;;;5076058;28;20025;-74
2021/12/04 04:31:56;;;;;;;28.85;12.77;;;;;;;;;;5075691;28;20095;-73
2021/12/04 04:34:32;;;;;;;35.80;14.02;;;;;;;;;;5074190;28;20021;-74
2021/12/04 04:40:39;;;;;;;26.63;12.40;;;;;;;;;;5063283;28;20465;-74
2021/12/04 04:59:45;;;;;;;26.05;11.13;;;;;;;;;;5075442;28;20078;-74
2021/12/04 05:13:05;;;;;;;34.08;11.88;;;;;;;;;;5094958;28;20123;-73
2021/12/04 05:15:39;;;;;;;29.48;11.43;;;;;;;;;;5076793;28;20077;-74
2021/12/04 05:18:33;;;;;;;26.13;11.85;;;;;;;;;;5095299;28;20457;-73
2021/12/04 05:21:05;;;;;;;;;;;;;;;;;;5077005;28;20028;-73
2021/12/04 05:23:40;;;;;;;29.17;12.93;;;;;;;;;;5076493;28;19910;-73
2021/12/04 05:26:08;;;;;;;31.73;12.18;;;;;;;;;;5076378;28;20383;-73
2021/12/04 05:28:34;;;;;;;33.92;13.25;;;;;;;;;;5076363;28;20388;-73
2021/12/04 05:31:01;;;;;;;31.95;12.65;;;;;;;;;;5094746;28;20444;-73
2021/12/04 05:33:27;;;;;;;31.40;14.10;;;;;;;;;;5094478;28;20028;-73
2021/12/04 05:35:54;;;;;;;30.52;13.38;;;;;;;;;;5076234;28;20085;-73
2021/12/04 05:38:20;;;;;;;28.75;13.50;;;;;;;;;;5094276;28;20036;-73
2021/12/04 05:40:47;;;;;;;29.30;11.57;;;;;;;;;;5094869;28;20028;-73
2021/12/04 05:43:13;;;;;;;29.67;11.85;;;;;;;;;;5094615;28;20054;-74
2021/12/04 05:45:52;;;;;;;31.70;11.85;;;;;;;;;;5094263;28;20099;-74
2021/12/04 05:48:28;;;;;;;27.25;11.65;;;;;;;;;;5076020;28;20031;-73
2021/12/04 05:54:05;;;;;;;27.45;10.73;;;;;;;;;;5077913;28;20031;-73
2021/12/04 05:56:33;;;;;;;26.80;11.45;;;;;;;;;;5075826;28;20515;-73
2021/12/04 05:59:00;;;;;;;25.10;11.10;;;;;;;;;;5094258;28;20192;-73
2021/12/04 06:01:27;;;;;;;29.70;11.93;;;;;;;;;;5094526;28;20034;-73
2021/12/04 06:03:53;;;;;;;28.17;12.02;;;;;;;;;;5093944;28;20480;-74
2021/12/04 06:06:20;;;;;;;28.92;12.60;;;;;;;;;;5072245;28;20511;-73
2021/12/04 06:08:46;;;;;;;33.72;13.18;;;;;;;;;;5073784;28;20020;-72
2021/12/04 06:11:12;;;;;;;33.33;12.60;;;;;;;;;;5072428;28;20024;-73
2021/12/04 06:13:39;;;;;;;38.85;14.65;;;;;;;;;;5072333;28;20056;-73
2021/12/04 06:16:05;;;;;;;37.75;14.95;;;;;;;;;;5072222;28;20037;-73
2021/12/04 06:18:32;;;;;;;33.97;13.55;;;;;;;;;;5072225;28;20399;-73
2021/12/04 06:23:44;;;;;;;26.10;11.27;;;;;;;;;;5074340;28;20480;-73
2021/12/04 06:26:10;;;;;;;27.25;12.57;;;;;;;;;;5073389;28;20055;-73
2021/12/04 06:28:36;;;;;;;33.25;12.77;;;;;;;;;;5072112;28;20500;-73
2021/12/04 06:31:02;;;;;;;36.60;13.20;;;;;;;;;;5072072;28;20025;-73
2021/12/04 06:33:29;;;;;;;29.45;13.27;;;;;;;;;;5072093;28;20025;-72
2021/12/04 06:35:55;;;;;;;29.55;13.27;;;;;;;;;;5072035;28;20046;-73
2021/12/04 06:38:21;;;;;;;29.65;12.63;;;;;;;;;;5071858;28;20481;-73
2021/12/04 06:40:48;;;;;;;33.17;14.68;;;;;;;;;;5073238;28;20090;-73
2021/12/04 06:43:15;;;;;;;35.65;14.10;;;;;;;;;;5073246;28;20025;-73
2021/12/04 06:45:44;;;;;;;33.95;13.75;;;;;;;;;;5073256;28;20052;-73
2021/12/04 06:48:22;;;;;;;33.53;14.35;;;;;;;;;;5071995;28;20035;-72
2021/12/04 06:50:59;;;;;;;31.40;13.75;;;;;;;;;;5073829;28;20025;-75
2021/12/04 06:53:39;;;;;;;30.88;13.20;;;;;;;;;;5071876;28;20436;-73
2021/12/04 06:56:07;;;;;;;32.70;14.20;;;;;;;;;;5072754;28;20025;-73
2021/12/04 06:58:35;;;;;;;40.33;14.82;;;;;;;;;;5071792;28;20047;-73
2021/12/04 07:01:01;;;;;;;25.65;12.82;;;;;;;;;;5071839;28;20079;-74
2021/12/04 07:03:28;;;;;;;29.60;12.95;;;;;;;;;;5073039;28;20484;-73
2021/12/04 07:05:54;;;;;;;33.97;14.15;;;;;;;;;;5071960;28;20074;-75
2021/12/04 07:08:20;;;;;;;32.25;15.05;;;;;;;;;;5073591;28;20024;-73
2021/12/04 07:10:47;;;;;;;30.85;14.60;;;;;;;;;;5071662;28;20020;-75
2021/12/04 07:13:13;;;;;;;34.78;15.35;;;;;;;;;;5072931;28;20024;-75
2021/12/04 07:15:41;;;;;;;34.03;14.45;;;;;;;;;;5073161;28;20459;-75
2021/12/04 07:18:08;;;;;;;34.55;15.93;;;;;;;;;;5071547;28;20036;-75
2021/12/04 07:20:34;;;;;;;30.67;14.38;;;;;;;;;;5071474;28;20576;-75
2021/12/04 07:23:04;;;;;;;31.98;13.77;;;;;;;;;;5072816;28;20030;-74
2021/12/04 07:25:30;;;;;;;31.58;14.88;;;;;;;;;;5072824;28;20020;-72
2021/12/04 07:27:57;;;;;;;30.90;13.60;;;;;;;;;;5073328;28;20028;-73
2021/12/04 07:30:24;;;;;;;34.42;14.43;;;;;;;;;;5071508;28;20021;-74
2021/12/04 07:32:51;;;;;;;31.83;14.70;;;;;;;;;;5073509;28;20489;-74
2021/12/04 07:35:17;;;;;;;29.77;14.23;;;;;;;;;;5076518;28;20017;-72
2021/12/04 07:37:44;;;;;;;38.13;13.90;;;;;;;;;;5076408;28;20043;-73
2021/12/04 07:40:11;;;;;;;31.85;14.68;;;;;;;;;;5076311;28;20021;-72
2021/12/04 07:42:38;;;;;;;30.30;13.70;;;;;;;;;;5075155;28;20024;-72
2021/12/04 07:45:05;;;;;;;32.53;13.55;;;;;;;;;;5076328;28;20380;-73
2021/12/04 07:47:32;;;;;;;29.60;12.98;;;;;;;;;;5076494;28;20028;-73
2021/12/04 07:49:58;;;;;;;28.65;12.52;;;;;;;;;;5076525;28;20024;-73
2021/12/04 07:52:24;;;;;;;28.95;13.77;;;;;;;;;;5074871;28;20396;-72
2021/12/04 07:54:50;;;;;;;31.88;12.98;;;;;;;;;;5075011;28;20028;-72
2021/12/04 07:57:17;;;;;;;28.42;13.32;;;;;;;;;;5074774;28;20040;-72
2021/12/04 07:59:43;;;;;;;28.48;12.63;;;;;;;;;;5074801;28;20024;-72
2021/12/04 08:02:09;;;;;;;28.15;12.77;;;;;;;;;;5074750;28;20028;-72
2021/12/04 08:04:35;;;;;;;24.60;12.48;;;;;;;;;;5074653;28;20031;-72
2021/12/04 08:07:01;;;;;;;32.83;13.57;;;;;;;;;;5096735;28;20040;-74
2021/12/04 08:09:27;;;;;;;24.70;12.02;;;;;;;;;;5078062;28;20020;-73
2021/12/04 08:11:54;;;;;;;27.40;11.80;;;;;;;;;;5096122;28;20028;-72
2021/12/04 08:14:20;;;;;;;22.35;11.65;;;;;;;;;;5078026;28;20038;-73
2021/12/04 08:16:49;;;;;;;26.58;11.60;;;;;;;;;;5077830;28;20477;-72
2021/12/04 08:19:15;;;;;;;26.48;12.32;;;;;;;;;;5077846;28;20024;-72
2021/12/04 08:21:41;;;;;;;23.95;12.30;;;;;;;;;;5096095;28;20052;-72
2021/12/04 08:24:08;;;;;;;23.10;11.40;;;;;;;;;;5077660;28;20031;-72
2021/12/04 08:26:38;;;;;;;25.35;12.68;;;;;;;;;;5095873;28;20028;-73
2021/12/04 08:29:04;;;;;;;24.42;12.23;;;;;;;;;;5096058;28;20377;-72
2021/12/04 08:31:31;;;;;;;28.75;11.98;;;;;;;;;;5096289;28;20066;-73
2021/12/04 08:33:57;;;;;;;24.95;12.27;;;;;;;;;;5077620;28;20053;-74
2021/12/04 08:36:23;;;;;;;25.23;12.35;;;;;;;;;;5077505;28;20028;-74
2021/12/04 08:38:50;;;;;;;21.40;10.80;;;;;;;;;;5077440;28;20038;-72
2021/12/04 08:41:16;;;;;;;22.80;11.98;;;;;;;;;;5060931;28;20012;-72
2021/12/04 08:43:43;;;;;;;26.83;11.32;;;;;;;;;;5076448;28;20480;-73
2021/12/04 08:46:10;;;;;;;23.33;9.63;;;;;;;;;;5077333;28;20024;-72
2021/12/04 08:48:36;;;;;;;20.75;10.07;;;;;;;;;;5077268;28;20024;-72
2021/12/04 08:51:04;;;;;;;20.77;10.50;;;;;;;;;;5077131;28;20061;-72
2021/12/04 08:53:30;;;;;;;18.98;9.70;;;;;;;;;;5077824;28;20149;-73
2021/12/04 08:55:56;;;;;;;22.63;10.00;;;;;;;;;;5077132;28;20035;-75
2021/12/04 08:58:22;;;;;;;23.83;11.30;;;;;;;;;;5077044;28;20043;-75
2021/12/04 09:00:49;;;;;;;24.00;10.70;;;;;;;;;;5095134;28;20031;-75
2021/12/04 09:03:18;;;;;;;22.73;10.85;;;;;;;;;;5095109;28;20517;-75
2021/12/04 09:05:44;;;;;;;24.55;10.57;;;;;;;;;;5094832;28;20508;-75
2021/12/04 09:08:11;;;;;;;25.00;10.77;;;;;;;;;;5076872;28;20384;-75
2021/12/04 09:10:41;;;;;;;22.33;10.15;;;;;;;;;;5095530;28;20027;-74
2021/12/04 09:13:07;;;;;;;22.20;9.75;;;;;;;;;;5076789;28;20020;-76
2021/12/04 09:15:33;;;;;;;22.75;10.85;;;;;;;;;;5076711;28;20035;-72
2021/12/04 09:18:00;;;;;;;23.67;11.25;;;;;;;;;;5095222;28;20036;-74
2021/12/04 09:20:28;;;;;;;21.92;11.00;;;;;;;;;;5094768;28;20027;-72
2021/12/04 09:22:54;;;;;;;25.38;11.15;;;;;;;;;;5076519;28;20020;-72
2021/12/04 09:25:23;;;;;;;21.00;10.77;;;;;;;;;;5076537;28;20028;-72
2021/12/04 09:28:17;;;;;;;23.00;11.10;;;;;;;;;;5094713;28;20473;-73
2021/12/04 09:31:01;;;;;;;24.80;10.80;;;;;;;;;;5076412;28;20500;-74
2021/12/04 10:21:00;;;;;;;20.25;10.45;;;;;;;;;;5094089;28;20193;-74
2021/12/04 10:34:36;;;;;;;22.38;11.50;;;;;;;;;;5093613;28;20024;-74
2021/12/04 10:37:06;;;;;;;19.67;10.38;;;;;;;;;;5093643;28;20028;-74
2021/12/04 10:39:32;;;;;;;21.45;10.45;;;;;;;;;;5093769;28;20101;-74
2021/12/04 10:42:02;;;;;;;19.83;10.60;;;;;;;;;;5075389;28;20035;-74
2021/12/04 10:44:28;;;;;;;20.10;10.73;;;;;;;;;;5075425;28;20490;-74
2021/12/04 10:46:57;;;;;;;21.60;10.73;;;;;;;;;;5076183;28;20029;-75
2021/12/04 10:58:50;;;;;;;20.60;9.85;;;;;;;;;;5094120;28;20070;-75
2021/12/04 11:00:56;;;;;;;;;;;;;;;;;;5085237;28;20029;-75
2021/12/04 11:03:33;;;;;;;16.20;8.93;;;;;;;;;;5093894;28;19904;-74
2021/12/04 11:38:36;;;;;;;11.82;7.10;;;;;;;;;;5076480;28;20085;-73
2021/12/04 11:41:25;;;;;;;18.48;8.27;;;;;;;;;;5075224;28;20029;-74
2021/12/04 11:46:28;;;;;;;14.57;7.43;;;;;;;;;;5076307;28;20029;-73
2021/12/04 11:48:59;;;;;;;17.65;8.82;;;;;;;;;;5076900;28;20043;-72
2021/12/04 11:51:26;;;;;;;12.18;6.97;;;;;;;;;;5075049;28;20056;-73
2021/12/04 11:53:54;;;;;;;15.13;7.13;;;;;;;;;;5076192;28;20051;-72
2021/12/04 11:56:27;;;;;;;12.60;6.32;;;;;;;;;;5075626;28;20028;-72
2021/12/04 11:58:53;;;;;;;13.48;6.65;;;;;;;;;;5076187;28;20035;-74
2021/12/04 12:01:32;;;;;;;12.80;6.68;;;;;;;;;;5074841;28;20040;-73
2021/12/04 12:04:00;;;;;;;12.40;6.97;;;;;;;;;;5074895;28;20021;-73
2021/12/04 12:06:31;;;;;;;12.30;5.70;;;;;;;;;;5091028;28;20496;-72
2021/12/04 12:09:06;;;;;;;8.40;4.85;;;;;;;;;;5096794;28;20031;-74
2021/12/04 12:11:32;;;;;;;6.88;3.80;;;;;;;;;;5077956;28;20020;-74
2021/12/04 12:14:08;;;;;;;6.65;3.55;;;;;;;;;;5096097;28;20044;-74
2021/12/04 12:16:38;;;;;;;6.45;3.85;;;;;;;;;;5077898;28;20035;-74
2021/12/04 12:19:11;;;;;;;8.43;4.28;;;;;;;;;;5095272;28;20031;-74
2021/12/04 12:21:45;;;;;;;9.52;4.50;;;;;;;;;;5077858;28;20024;-74
2021/12/04 12:24:36;;;;;;;8.13;4.57;;;;;;;;;;5077836;28;20029;-74
2021/12/04 12:37:51;;;;;;;8.30;4.18;;;;;;;;;;5095608;28;20032;-74
2021/12/04 12:40:21;;;;;;;9.25;5.10;;;;;;;;;;5105112;28;20043;-72
2021/12/04 12:42:47;;;;;;;8.85;4.38;;;;;;;;;;5116253;28;20023;-72
2021/12/04 12:45:21;;;;;;;8.27;4.43;;;;;;;;;;5115663;28;20084;-73
2021/12/04 12:48:11;;;;;;;13.05;4.93;;;;;;;;;;5097544;28;20023;-73
2021/12/04 12:50:39;;;;;;;10.90;5.78;;;;;;;;;;5085159;28;20063;-73
2021/12/04 12:53:05;;;;;;;10.05;4.65;;;;;;;;;;5116314;28;20076;-72
2021/12/04 12:55:33;;;;;;;9.95;4.25;;;;;;;;;;5115610;28;20544;-72
2021/12/04 12:58:11;;;;;;;9.82;4.43;;;;;;;;;;5115636;28;20054;-72
2021/12/04 13:11:57;;;;;;;10.02;5.30;;;;;;;;;;5115641;28;20035;-73
2021/12/04 13:14:28;;;;;;;7.63;4.18;;;;;;;;;;5115290;28;20372;-73
2021/12/04 13:17:02;;;;;;;8.32;3.72;;;;;;;;;;5096857;28;20387;-73
2021/12/04 13:19:28;;;;;;;7.00;4.38;;;;;;;;;;5097023;28;20023;-73
2021/12/04 13:21:56;;;;;;;7.70;4.25;;;;;;;;;;5115148;28;20085;-73
2021/12/04 13:24:24;;;;;;;10.65;4.90;;;;;;;;;;5096831;28;20023;-73
2021/12/04 13:26:52;;;;;;;8.98;4.30;;;;;;;;;;5114996;28;20467;-74
2021/12/04 13:29:21;;;;;;;10.20;4.38;;;;;;;;;;5114888;28;20030;-74
2021/12/04 13:31:47;;;;;;;6.93;3.88;;;;;;;;;;5096593;28;20066;-75
2021/12/04 13:34:14;;;;;;;8.18;4.20;;;;;;;;;;5096625;28;20023;-74
2021/12/04 13:36:45;;;;;;;9.98;4.53;;;;;;;;;;5096512;28;20027;-75
2021/12/04 13:39:13;;;;;;;8.73;4.40;;;;;;;;;;5096530;28;20421;-74
2021/12/04 13:41:40;;;;;;;12.38;4.35;;;;;;;;;;5096267;28;20051;-72
2021/12/04 13:44:09;;;;;;;8.00;4.07;;;;;;;;;;5096424;28;20119;-74
2021/12/04 13:46:40;;;;;;;7.93;4.20;;;;;;;;;;5096421;28;20028;-75
2021/12/04 13:49:06;;;;;;;6.85;3.70;;;;;;;;;;5096419;28;20027;-73
2021/12/04 13:51:33;;;;;;;11.23;4.43;;;;;;;;;;5114618;28;20123;-73
2021/12/04 13:54:02;;;;;;;7.20;4.00;;;;;;;;;;5115079;28;20050;-74
2021/12/04 13:56:28;;;;;;;9.13;5.03;;;;;;;;;;5114395;28;20104;-73
2021/12/04 13:58:57;;;;;;;10.65;5.38;;;;;;;;;;5096258;28;20027;-72
2021/12/04 14:01:24;;;;;;;10.20;5.28;;;;;;;;;;5114439;28;20027;-73
2021/12/04 14:03:54;;;;;;;10.55;6.32;;;;;;;;;;5114828;28;20031;-72
2021/12/04 14:06:20;;;;;;;13.02;6.55;;;;;;;;;;5114031;28;20526;-74
2021/12/04 14:09:00;;;;;;;12.93;6.68;;;;;;;;;;5114246;28;20023;-73
2021/12/04 14:11:32;;;;;;;12.88;6.22;;;;;;;;;;5114277;28;20108;-74
2021/12/04 14:13:59;;;;;;;13.60;5.72;;;;;;;;;;5096037;28;20027;-73
2021/12/04 14:16:26;;;;;;;10.90;5.53;;;;;;;;;;5114933;28;20024;-73
2021/12/04 14:18:53;;;;;;;11.55;5.45;;;;;;;;;;5114039;28;20088;-73
2021/12/04 14:21:19;;;;;;;12.15;5.20;;;;;;;;;;5095918;28;20411;-73
2021/12/04 14:23:48;;;;;;;11.85;5.65;;;;;;;;;;5114002;28;20516;-73
2021/12/04 14:26:15;;;;;;;12.45;6.38;;;;;;;;;;5114331;28;20028;-73
2021/12/04 14:28:43;;;;;;;11.07;5.60;;;;;;;;;;5095815;28;20023;-73
2021/12/04 14:31:10;;;;;;;11.98;5.53;;;;;;;;;;5114001;28;20113;-73
2021/12/04 14:33:37;;;;;;;14.05;6.40;;;;;;;;;;5114553;28;20019;-73
2021/12/04 14:36:03;;;;;;;15.00;6.68;;;;;;;;;;5113946;28;20035;-73
2021/12/04 14:38:31;;;;;;;14.80;7.40;;;;;;;;;;5113753;28;20039;-73
2021/12/04 14:41:03;;;;;;;17.40;7.95;;;;;;;;;;5095451;28;20425;-73
2021/12/04 14:43:33;;;;;;;17.33;8.90;;;;;;;;;;5095152;28;20487;-74
2021/12/04 14:46:05;;;;;;;17.83;8.55;;;;;;;;;;5095578;28;20024;-73
2021/12/04 14:48:51;;;;;;;18.33;9.57;;;;;;;;;;5095559;28;20042;-74
2021/12/04 14:51:20;;;;;;;16.17;8.15;;;;;;;;;;5095586;28;20027;-74
2021/12/04 14:53:53;;;;;;;17.80;9.45;;;;;;;;;;5095486;28;20472;-73
2021/12/04 14:56:20;;;;;;;20.27;9.55;;;;;;;;;;5095551;28;20041;-75
2021/12/04 14:58:48;;;;;;;18.20;8.63;;;;;;;;;;5113702;28;20483;-74
2021/12/04 15:01:15;;;;;;;18.13;8.75;;;;;;;;;;5095509;28;20028;-74
2021/12/04 15:03:46;;;;;;;20.63;10.52;;;;;;;;;;5113923;28;20367;-74
2021/12/04 15:06:15;;;;;;;25.45;10.85;;;;;;;;;;5104551;28;20044;-74
2021/12/04 15:08:43;;;;;;;18.38;9.50;;;;;;;;;;5112257;28;20035;-74
2021/12/04 15:11:18;;;;;;;20.48;9.90;;;;;;;;;;5112347;28;20119;-74
2021/12/04 15:13:52;;;;;;;17.67;8.60;;;;;;;;;;5113039;28;20114;-75
2021/12/04 15:16:22;;;;;;;18.42;8.18;;;;;;;;;;5112402;28;20027;-73
2021/12/04 15:18:49;;;;;;;19.70;7.95;;;;;;;;;;5112320;28;20483;-74
2021/12/04 15:21:17;;;;;;;18.05;7.68;;;;;;;;;;5112243;28;20023;-73
2021/12/04 15:23:45;;;;;;;18.35;7.93;;;;;;;;;;5111954;28;20061;-75
2021/12/04 15:26:19;;;;;;;18.17;7.80;;;;;;;;;;5112011;28;20015;-73
2021/12/04 15:28:49;;;;;;;18.42;8.77;;;;;;;;;;5112158;28;20361;-74
2021/12/04 15:31:16;;;;;;;19.20;8.82;;;;;;;;;;5112164;28;20027;-73
2021/12/04 15:33:45;;;;;;;19.95;9.93;;;;;;;;;;5112112;28;20027;-75
2021/12/04 15:36:36;;;;;;;22.20;9.05;;;;;;;;;;5112070;28;20030;-74
2021/12/04 15:39:11;;;;;;;18.58;9.13;;;;;;;;;;5112035;28;20039;-74
2021/12/04 15:42:00;;;;;;;19.48;8.95;;;;;;;;;;5112080;28;20427;-74
2021/12/04 15:44:44;;;;;;;21.20;9.85;;;;;;;;;;5113319;28;20123;-75
2021/12/04 15:47:27;;;;;;;25.02;10.50;;;;;;;;;;5111979;28;20027;-74
2021/12/04 15:50:25;;;;;;;20.85;9.93;;;;;;;;;;5112018;28;20165;-74
2021/12/04 15:53:07;;;;;;;22.38;10.35;;;;;;;;;;5113766;27;20031;-74
2021/12/04 15:55:41;;;;;;;21.77;9.07;;;;;;;;;;5115629;28;20023;-74
2021/12/04 15:58:13;;;;;;;17.33;8.98;;;;;;;;;;5117385;28;20039;-73
2021/12/04 16:01:00;;;;;;;20.60;9.57;;;;;;;;;;5116369;28;20031;-74
2021/12/04 16:03:27;;;;;;;19.27;10.45;;;;;;;;;;5098228;28;20108;-74
2021/12/04 16:05:56;;;;;;;21.33;9.80;;;;;;;;;;5116493;28;20048;-74
2021/12/04 16:08:24;;;;;;;17.70;8.98;;;;;;;;;;5117179;28;20157;-75
2021/12/04 16:10:51;;;;;;;20.67;10.05;;;;;;;;;;5098379;28;20019;-74
2021/12/04 16:13:23;;;;;;;21.27;9.75;;;;;;;;;;5116773;28;20028;-74
2021/12/04 16:15:50;;;;;;;21.27;9.80;;;;;;;;;;5098189;28;20020;-74
2021/12/04 16:18:17;;;;;;;26.48;10.27;;;;;;;;;;5116393;28;20471;-74
2021/12/04 16:20:45;;;;;;;21.02;10.88;;;;;;;;;;5116247;28;20023;-74
2021/12/04 16:23:14;;;;;;;23.40;11.25;;;;;;;;;;5098088;28;20114;-74
2021/12/04 16:25:41;;;;;;;23.25;11.07;;;;;;;;;;5098143;28;20383;-75
2021/12/04 16:39:13;;;;;;;22.85;10.13;;;;;;;;;;5033308;28;20034;-74
2021/12/04 16:41:41;;;;;;;20.48;10.00;;;;;;;;;;5081258;28;20039;-73
2021/12/04 16:44:09;;;;;;;20.35;9.55;;;;;;;;;;5097629;28;20027;-75
2021/12/04 16:46:38;;;;;;;21.70;10.32;;;;;;;;;;5097640;28;20019;-74
2021/12/04 16:49:06;;;;;;;23.55;9.95;;;;;;;;;;5115876;28;20023;-74
2021/12/04 16:59:34;;;;;;;19.00;9.50;;;;;;;;;;5115948;28;20050;-75
2021/12/04 17:02:02;;;;;;;23.05;9.02;;;;;;;;;;5115549;28;20104;-74
2021/12/04 17:04:29;;;;;;;21.30;9.15;;;;;;;;;;5114820;28;20096;-74
2021/12/04 17:06:56;;;;;;;24.67;10.75;;;;;;;;;;5115319;28;20051;-74
2021/12/04 17:09:24;;;;;;;22.80;10.77;;;;;;;;;;5115418;28;20395;-74
2021/12/04 17:11:52;;;;;;;28.00;10.27;;;;;;;;;;5115632;28;20056;-75
2021/12/04 17:14:19;;;;;;;20.80;9.48;;;;;;;;;;5097031;28;20023;-74
2021/12/04 17:16:46;;;;;;;21.17;9.75;;;;;;;;;;5115165;28;21982;-75
2021/12/04 17:19:13;;;;;;;27.58;11.52;;;;;;;;;;5115524;28;20107;-74
2021/12/04 17:21:40;;;;;;;21.88;10.75;;;;;;;;;;5096919;28;20019;-74
2021/12/04 17:24:08;;;;;;;25.55;11.15;;;;;;;;;;5096895;28;20464;-74
2021/12/04 17:26:39;;;;;;;27.42;10.77;;;;;;;;;;5096883;28;20030;-75
2021/12/04 17:29:07;;;;;;;27.92;11.68;;;;;;;;;;5097402;28;20352;-74
2021/12/04 17:31:33;;;;;;;26.55;11.82;;;;;;;;;;5115041;28;20472;-74
2021/12/04 17:34:01;;;;;;;24.35;11.35;;;;;;;;;;5114895;28;20027;-74
2021/12/04 17:36:28;;;;;;;27.15;11.73;;;;;;;;;;5114767;28;20031;-73
2021/12/04 17:38:55;;;;;;;24.08;12.45;;;;;;;;;;5096594;28;20028;-75
2021/12/04 17:41:25;;;;;;;28.27;11.65;;;;;;;;;;5115051;28;20023;-74
2021/12/04 17:43:52;;;;;;;20.42;9.35;;;;;;;;;;5096566;28;20030;-74
2021/12/04 17:46:20;;;;;;;24.00;10.98;;;;;;;;;;5096515;28;20023;-73
2021/12/04 17:48:48;;;;;;;26.58;12.10;;;;;;;;;;5096428;28;20492;-74
2021/12/04 17:51:15;;;;;;;27.65;12.00;;;;;;;;;;5096418;28;20464;-74
2021/12/04 17:53:42;;;;;;;25.27;12.38;;;;;;;;;;5096314;28;20026;-74
2021/12/04 17:56:09;;;;;;;21.85;11.18;;;;;;;;;;5114552;28;20027;-75